Time;durP1;ratioP1;P1;durP2;ratioP2;P2;SDS_P1;SDS_P2;PMS_P1;PMS_P2;Temp;Humidity;BMP_temperature;BMP_pressure;BME280_temperature;BME280_humidity;BME280_pressure;Samples;Min_cycle;Max_cycle;Signal;HPM_P1;HPM_P2
2022/03/27 04:22:34;;;;;;;21.25;10.23;;;;;;;5.11;66.63;101437.19;5129593;27;20116;-77
2022/03/27 04:24:59;;;;;;;24.38;11.45;;;;;;;5.17;66.91;101443.81;5129900;28;20092;-75
2022/03/27 04:27:25;;;;;;;26.45;9.95;;;;;;;5.17;67.21;101441.19;5129873;28;20045;-77
2022/03/27 04:29:51;;;;;;;23.48;11.13;;;;;;;5.20;67.23;101440.94;5129949;28;20616;-77
2022/03/27 04:32:17;;;;;;;19.27;9.82;;;;;;;5.24;66.47;101444.22;5129848;27;20104;-77
2022/03/27 04:34:43;;;;;;;25.83;11.27;;;;;;;5.30;65.65;101441.16;5129741;28;20031;-76
2022/03/27 04:37:08;;;;;;;18.88;9.82;;;;;;;5.37;66.11;101443.25;5129541;27;20035;-76
2022/03/27 04:39:34;;;;;;;25.23;9.88;;;;;;;5.36;65.59;101444.19;5129544;28;20031;-77
2022/03/27 04:41:59;;;;;;;21.77;10.93;;;;;;;5.39;65.69;101441.31;5128024;28;20091;-75
2022/03/27 04:44:25;;;;;;;16.08;9.27;;;;;;;5.39;65.50;101443.97;5129547;27;20035;-77
2022/03/27 04:46:51;;;;;;;19.23;9.20;;;;;;;5.35;65.67;101444.31;5128517;28;20122;-77
2022/03/27 04:49:17;;;;;;;21.15;10.80;;;;;;;5.35;65.75;101442.50;5130233;28;20040;-77
2022/03/27 04:51:42;;;;;;;20.27;10.35;;;;;;;5.29;66.10;101440.31;5128623;28;20043;-76
2022/03/27 04:54:08;;;;;;;17.80;10.10;;;;;;;5.37;66.16;101445.88;5130456;27;20043;-76
2022/03/27 04:56:35;;;;;;;23.23;10.48;;;;;;;5.32;66.05;101449.81;5129445;28;20046;-76
2022/03/27 04:59:00;;;;;;;20.52;10.10;;;;;;;5.28;66.63;101450.97;5129527;27;20073;-77
2022/03/27 05:01:26;;;;;;;25.88;10.25;;;;;;;5.26;66.58;101447.59;5129098;27;20070;-76
2022/03/27 05:03:52;;;;;;;17.90;10.15;;;;;;;5.28;66.42;101448.31;5129241;28;20035;-75
2022/03/27 05:06:18;;;;;;;24.67;10.20;;;;;;;5.26;66.27;101445.81;5129166;28;20032;-77
2022/03/27 05:08:44;;;;;;;21.20;10.52;;;;;;;5.31;66.67;101456.03;5129143;27;20521;-77
2022/03/27 05:11:11;;;;;;;20.77;10.13;;;;;;;5.23;66.20;101437.25;5128979;27;20039;-77
2022/03/27 05:13:36;;;;;;;23.25;10.38;;;;;;;5.25;66.80;101444.13;5127335;28;20046;-76
2022/03/27 05:16:02;;;;;;;23.83;10.55;;;;;;;5.30;66.77;101451.72;5128840;27;20020;-77
2022/03/27 05:18:28;;;;;;;21.33;10.88;;;;;;;5.27;66.71;101446.63;5127788;28;20698;-77
2022/03/27 05:20:53;;;;;;;26.90;10.45;;;;;;;5.21;67.14;101445.28;5128182;28;20046;-76
2022/03/27 05:23:19;;;;;;;23.08;11.27;;;;;;;5.29;66.18;101444.75;5129233;27;20126;-77
2022/03/27 05:25:45;;;;;;;18.15;9.38;;;;;;;5.17;66.53;101434.09;5128824;28;20633;-77
2022/03/27 05:28:14;;;;;;;19.40;10.40;;;;;;;5.13;68.05;101444.97;5127379;28;20474;-77
2022/03/27 05:30:39;;;;;;;23.38;11.18;;;;;;;5.20;66.86;101445.38;5128535;27;20507;-77
2022/03/27 05:33:05;;;;;;;23.65;10.73;;;;;;;5.18;67.44;101442.88;5119329;28;20074;-77
2022/03/27 05:35:31;;;;;;;20.20;9.68;;;;;;;5.12;66.76;101441.50;5116292;28;20489;-77
2022/03/27 05:37:58;;;;;;;27.23;13.32;;;;;;;5.14;68.08;101450.16;5114357;28;20084;-77
2022/03/27 05:40:25;;;;;;;23.13;10.75;;;;;;;5.16;68.77;101458.84;5115201;28;20064;-77
2022/03/27 05:42:52;;;;;;;21.92;11.00;;;;;;;5.13;68.19;101459.03;5114343;28;20047;-77
2022/03/27 05:45:18;;;;;;;21.20;10.20;;;;;;;5.14;69.40;101460.72;5114620;28;20341;-77
2022/03/27 05:47:44;;;;;;;23.00;11.95;;;;;;;5.20;69.03;101469.16;5114587;28;20468;-77
2022/03/27 05:50:12;;;;;;;18.45;9.70;;;;;;;5.14;69.61;101465.16;5114710;28;20539;-77
2022/03/27 05:52:37;;;;;;;20.40;10.30;;;;;;;5.18;69.11;101471.94;5113233;28;20119;-77
2022/03/27 05:55:04;;;;;;;23.70;10.48;;;;;;;5.11;69.28;101470.66;5096908;28;20494;-75
2022/03/27 05:57:30;;;;;;;22.33;11.57;;;;;;;5.19;69.44;101481.53;5115022;28;20051;-77
2022/03/27 05:59:56;;;;;;;24.55;11.60;;;;;;;5.31;67.27;101480.66;5113764;28;20035;-76
2022/03/27 06:02:21;;;;;;;26.17;12.45;;;;;;;5.41;67.07;101483.47;5114105;28;20524;-77
2022/03/27 06:04:47;;;;;;;22.52;9.93;;;;;;;5.53;66.89;101490.53;5114966;28;20412;-76
2022/03/27 06:07:13;;;;;;;23.88;10.65;;;;;;;5.62;67.24;101494.34;5114721;28;20088;-75
2022/03/27 06:09:39;;;;;;;22.60;9.98;;;;;;;5.77;66.10;101500.31;5114218;28;20101;-74
2022/03/27 06:12:05;;;;;;;22.02;11.38;;;;;;;5.96;65.09;101490.09;5113613;28;20075;-74
2022/03/27 06:14:31;;;;;;;20.70;11.23;;;;;;;6.05;65.10;101497.34;5114172;28;20038;-74
2022/03/27 06:16:57;;;;;;;22.08;11.30;;;;;;;6.18;65.38;101498.13;5112726;28;20058;-74
2022/03/27 06:19:23;;;;;;;17.50;9.25;;;;;;;6.25;64.52;101491.41;5114070;28;20663;-74
2022/03/27 06:21:49;;;;;;;19.48;9.98;;;;;;;6.41;64.19;101492.91;5113523;28;20107;-73
2022/03/27 06:24:15;;;;;;;16.05;9.10;;;;;;;6.53;63.93;101491.97;5112676;28;20043;-74
2022/03/27 06:26:41;;;;;;;27.63;10.27;;;;;;;6.63;63.78;101503.53;5113773;28;20031;-72
2022/03/27 06:29:10;;;;;;;20.20;10.77;;;;;;;6.71;63.11;101490.53;5113810;28;20479;-72
2022/03/27 06:31:38;;;;;;;25.13;10.63;;;;;;;6.75;62.76;101502.59;5113454;28;20031;-72
2022/03/27 06:34:06;;;;;;;21.80;11.55;;;;;;;7.00;61.68;101498.06;5113535;28;20036;-72
2022/03/27 06:36:34;;;;;;;20.05;11.02;;;;;;;7.10;61.63;101498.16;5113685;28;20040;-71
2022/03/27 06:39:01;;;;;;;19.13;10.10;;;;;;;7.28;60.36;101500.22;5113447;28;20035;-72
2022/03/27 06:41:27;;;;;;;23.23;11.18;;;;;;;7.51;59.93;101502.88;5113414;28;20114;-73
2022/03/27 06:43:53;;;;;;;22.13;11.38;;;;;;;7.69;59.63;101504.00;5112570;27;20071;-73
2022/03/27 06:46:20;;;;;;;29.23;10.82;;;;;;;7.98;59.26;101501.66;5113442;28;20039;-73
2022/03/27 06:48:47;;;;;;;19.25;10.10;;;;;;;8.02;57.68;101497.78;5113336;28;20053;-73
2022/03/27 06:51:13;;;;;;;23.23;9.63;;;;;;;8.20;57.06;101492.75;5095653;28;20507;-73
2022/03/27 06:53:39;;;;;;;20.70;10.98;;;;;;;8.22;58.37;101490.84;5095238;28;20039;-73
2022/03/27 06:56:06;;;;;;;19.70;10.23;;;;;;;8.40;57.23;101507.88;5113669;28;20039;-72
2022/03/27 06:58:32;;;;;;;20.17;10.90;;;;;;;8.76;56.49;101508.41;5111994;28;20071;-72
2022/03/27 07:03:43;;;;;;;22.55;11.00;;;;;;;8.93;55.35;101513.13;5105604;28;20105;-72
2022/03/27 07:06:08;;;;;;;25.50;12.57;;;;;;;9.13;55.96;101500.78;5111526;28;20071;-73
2022/03/27 07:08:34;;;;;;;30.05;10.60;;;;;;;9.23;54.85;101504.31;5112818;28;20071;-73
2022/03/27 07:11:00;;;;;;;18.05;10.15;;;;;;;9.20;54.14;101493.13;5112586;28;20039;-72
2022/03/27 07:13:26;;;;;;;19.88;11.20;;;;;;;9.30;54.26;101495.78;5112136;28;20054;-72
2022/03/27 07:15:52;;;;;;;21.27;10.65;;;;;;;9.42;53.73;101497.38;5112767;28;20043;-72
2022/03/27 07:18:18;;;;;;;21.90;12.02;;;;;;;9.68;53.74;101500.38;5112906;28;20035;-72
2022/03/27 07:20:46;;;;;;;25.85;10.55;;;;;;;9.65;53.85;101498.84;5112550;28;20081;-72
2022/03/27 07:23:14;;;;;;;22.50;11.02;;;;;;;9.85;52.40;101497.06;5112788;28;20388;-72
2022/03/27 07:25:42;;;;;;;23.60;10.55;;;;;;;10.06;51.70;101505.75;5113489;28;20488;-71
2022/03/27 07:28:09;;;;;;;19.50;11.02;;;;;;;10.24;52.50;101510.44;5112100;28;20043;-73
2022/03/27 07:30:36;;;;;;;22.83;10.70;;;;;;;10.47;51.23;101503.81;5112683;28;20036;-72
2022/03/27 07:33:03;;;;;;;24.42;11.00;;;;;;;10.62;50.79;101506.88;5112187;28;20490;-72
2022/03/27 07:35:30;;;;;;;19.92;11.30;;;;;;;10.73;50.52;101517.38;5112470;28;20610;-72
2022/03/27 07:37:56;;;;;;;21.67;10.82;;;;;;;10.95;50.05;101510.84;5113459;28;20062;-72
2022/03/27 07:40:22;;;;;;;18.77;10.57;;;;;;;10.98;49.94;101502.56;5112111;28;20058;-74
2022/03/27 07:42:50;;;;;;;23.48;10.45;;;;;;;10.79;50.33;101516.78;5110636;28;20036;-73
2022/03/27 07:45:21;;;;;;;17.98;11.15;;;;;;;10.82;50.37;101510.31;5112666;28;20043;-72
2022/03/27 07:47:48;;;;;;;19.92;10.85;;;;;;;11.04;49.84;101501.16;5112603;28;20127;-72
2022/03/27 07:50:15;;;;;;;22.55;10.60;;;;;;;11.25;49.43;101504.44;5111279;28;20500;-72
2022/03/27 07:52:40;;;;;;;23.17;11.20;;;;;;;11.18;49.54;101508.69;5110469;28;20425;-72
2022/03/27 07:55:08;;;;;;;20.85;11.52;;;;;;;11.53;49.76;101501.75;5112656;28;20077;-72
2022/03/27 07:57:33;;;;;;;21.92;10.70;;;;;;;11.65;48.77;101511.25;5112391;28;20537;-72
2022/03/27 07:59:59;;;;;;;19.30;10.88;;;;;;;11.76;49.59;101507.53;5112414;28;20043;-72
2022/03/27 08:02:25;;;;;;;24.27;10.82;;;;;;;11.79;48.79;101508.06;5112076;28;20035;-72
2022/03/27 08:04:51;;;;;;;20.80;10.30;;;;;;;12.05;47.93;101502.84;5112319;28;20143;-71
2022/03/27 08:07:17;;;;;;;21.35;9.98;;;;;;;12.11;47.59;101502.25;5093858;28;20043;-72
2022/03/27 08:09:42;;;;;;;21.02;11.07;;;;;;;12.33;46.85;101505.47;5112240;28;20023;-71
2022/03/27 08:12:09;;;;;;;24.27;10.50;;;;;;;12.56;46.47;101508.47;5111947;28;20400;-72
2022/03/27 08:14:35;;;;;;;21.40;11.48;;;;;;;12.65;46.27;101499.50;5112337;28;20046;-72
2022/03/27 08:17:03;;;;;;;24.52;12.63;;;;;;;12.72;46.18;101501.41;5112201;28;20145;-74
2022/03/27 08:19:28;;;;;;;26.00;14.63;;;;;;;12.90;46.42;101498.66;5111946;28;20106;-73
2022/03/27 08:21:55;;;;;;;25.70;13.35;;;;;;;13.06;45.96;101497.94;5110393;28;20189;-72
2022/03/27 08:24:22;;;;;;;19.30;10.50;;;;;;;13.08;46.08;101495.94;5112194;28;20031;-73
2022/03/27 08:26:57;;;;;;;21.83;10.18;;;;;;;13.19;47.60;101503.69;5111038;28;20040;-72
2022/03/27 08:29:31;;;;;;;20.23;11.90;;;;;;;13.30;45.15;101514.16;5112025;28;20043;-72
2022/03/27 08:32:00;;;;;;;20.73;10.63;;;;;;;13.47;45.01;101500.81;5110212;28;20039;-72
2022/03/27 08:34:28;;;;;;;19.02;10.57;;;;;;;13.64;44.61;101507.94;5112576;28;20038;-72
2022/03/27 08:36:55;;;;;;;21.42;11.02;;;;;;;13.74;44.29;101499.75;5112094;28;20032;-72
2022/03/27 08:39:21;;;;;;;19.23;11.32;;;;;;;13.96;45.05;101509.00;5111903;28;20036;-72
2022/03/27 08:41:49;;;;;;;18.77;10.73;;;;;;;14.23;44.00;101508.69;5110257;28;20027;-72
2022/03/27 08:44:20;;;;;;;18.00;10.82;;;;;;;14.12;43.58;101500.97;5111716;28;20043;-72
2022/03/27 08:46:48;;;;;;;15.23;9.73;;;;;;;14.40;43.52;101507.69;5111760;28;20028;-73
2022/03/27 08:49:25;;;;;;;16.63;9.75;;;;;;;14.59;43.36;101506.53;5111864;28;20062;-72
2022/03/27 08:52:17;;;;;;;17.58;10.43;;;;;;;14.76;42.08;101493.97;5110053;28;20032;-72
2022/03/27 08:54:49;;;;;;;16.58;10.00;;;;;;;14.84;41.97;101504.66;5106630;28;20043;-72
2022/03/27 08:57:40;;;;;;;18.50;9.95;;;;;;;15.20;42.26;101491.66;5111510;28;20477;-73
2022/03/27 09:00:06;;;;;;;21.75;10.80;;;;;;;15.18;42.21;101498.19;5111583;28;20488;-73
2022/03/27 09:02:32;;;;;;;24.50;10.88;;;;;;;15.53;40.60;101486.16;5111131;28;20131;-73
2022/03/27 09:04:59;;;;;;;15.50;9.75;;;;;;;15.56;40.46;101483.09;5111370;28;20077;-73
2022/03/27 09:07:27;;;;;;;14.73;9.23;;;;;;;15.79;39.26;101496.63;5112281;28;20036;-72
2022/03/27 09:09:54;;;;;;;17.65;9.43;;;;;;;15.71;38.95;101491.28;5115714;28;20285;-73
2022/03/27 09:12:21;;;;;;;16.67;9.18;;;;;;;15.97;38.74;101497.19;5115512;28;20120;-73
2022/03/27 09:14:48;;;;;;;18.63;9.40;;;;;;;16.23;38.48;101501.34;5115585;28;20043;-72
2022/03/27 09:17:14;;;;;;;18.27;9.63;;;;;;;16.33;38.27;101496.56;5115355;28;20035;-73
2022/03/27 09:19:45;;;;;;;14.07;8.98;;;;;;;16.63;37.98;101499.34;5115769;28;20449;-72
2022/03/27 09:22:23;;;;;;;16.75;9.70;;;;;;;16.79;37.32;101493.81;5115121;28;20063;-73
2022/03/27 09:25:01;;;;;;;17.85;9.82;;;;;;;16.87;37.36;101501.78;5115802;28;20050;-73
2022/03/27 09:27:36;;;;;;;16.00;10.02;;;;;;;16.94;37.16;101497.34;5115068;28;20036;-73
2022/03/27 09:30:07;;;;;;;16.63;9.27;;;;;;;17.08;36.97;101498.38;5114851;28;20118;-73
2022/03/27 09:32:35;;;;;;;15.93;8.90;;;;;;;17.16;37.62;101500.16;5115046;28;20390;-73
2022/03/27 09:35:02;;;;;;;;;;;;;;;17.60;36.10;101497.38;5114520;28;20028;-73
2022/03/27 09:37:32;;;;;;;;;;;;;;;17.37;36.51;101481.38;5114580;28;19928;-73
2022/03/27 09:39:58;;;;;;;16.48;8.80;;;;;;;17.88;35.66;101492.16;5114910;28;19912;-73
2022/03/27 09:42:25;;;;;;;20.23;8.65;;;;;;;17.90;35.74;101490.09;5115639;28;20077;-72
2022/03/27 09:45:14;;;;;;;16.08;9.95;;;;;;;18.36;35.34;101487.00;5115270;28;20126;-73
2022/03/27 09:47:42;;;;;;;20.35;9.18;;;;;;;18.43;34.65;101483.34;5114608;28;20540;-73
2022/03/27 09:50:08;;;;;;;;;;;;;;;18.95;33.87;101481.25;5115197;28;20496;-73
2022/03/27 09:52:34;;;;;;;15.77;9.07;;;;;;;19.46;33.60;101479.03;5114345;28;19929;-73
2022/03/27 09:55:08;;;;;;;14.27;8.50;;;;;;;19.30;33.38;101467.72;5113374;28;20427;-73
2022/03/27 09:57:39;;;;;;;16.67;9.73;;;;;;;19.51;32.95;101475.72;5114630;28;20039;-72
2022/03/27 10:00:07;;;;;;;15.15;8.68;;;;;;;20.27;32.21;101468.19;5114618;28;20067;-73
2022/03/27 10:02:39;;;;;;;15.95;8.65;;;;;;;20.61;32.94;101462.81;5114728;28;20032;-73
2022/03/27 10:05:07;;;;;;;29.38;10.75;;;;;;;20.75;31.30;101461.75;5114416;28;20054;-73
2022/03/27 10:07:35;;;;;;;15.60;8.90;;;;;;;21.10;30.19;101456.88;5114016;28;20031;-72
2022/03/27 10:10:01;;;;;;;16.83;8.63;;;;;;;20.87;30.25;101454.66;5114175;28;20027;-73
2022/03/27 10:12:29;;;;;;;10.73;7.63;;;;;;;21.60;29.69;101454.41;5113698;28;20035;-73
2022/03/27 10:14:59;;;;;;;23.88;9.93;;;;;;;21.89;29.03;101455.66;5114194;28;20176;-73
2022/03/27 10:17:27;;;;;;;18.02;9.50;;;;;;;21.85;28.88;101447.16;5113820;28;20035;-73
2022/03/27 10:19:59;;;;;;;14.55;8.20;;;;;;;22.21;29.06;101445.66;5113928;28;20051;-73
2022/03/27 10:22:28;;;;;;;14.95;8.48;;;;;;;22.24;29.29;101449.84;5113782;28;20373;-74
2022/03/27 10:24:57;;;;;;;15.02;8.80;;;;;;;22.56;28.36;101442.41;5112815;28;20475;-74
2022/03/27 10:27:24;;;;;;;16.30;9.32;;;;;;;22.45;27.97;101444.00;5114377;27;20469;-73
2022/03/27 10:29:50;;;;;;;16.52;8.23;;;;;;;22.67;27.84;101438.97;5114482;28;20400;-74
2022/03/27 10:32:16;;;;;;;13.85;8.85;;;;;;;22.63;27.69;101429.63;5121513;22;20029;-74
2022/03/27 10:34:59;;;;;;;14.45;8.15;;;;;;;22.97;27.18;101423.63;5053050;28;20128;-74
2022/03/27 10:38:05;;;;;;;16.88;9.00;;;;;;;23.11;28.42;101415.34;5035120;28;20032;-75
2022/03/27 10:40:47;;;;;;;16.40;9.43;;;;;;;22.82;28.30;101423.16;5029291;28;20045;-74
2022/03/27 10:43:23;;;;;;;13.80;9.13;;;;;;;23.41;26.63;101420.78;5052819;28;20475;-74
2022/03/27 10:46:16;;;;;;;66.13;16.80;;;;;;;23.26;27.46;101418.47;5035159;28;20060;-75
2022/03/27 10:48:42;;;;;;;11.98;8.25;;;;;;;23.20;29.06;101411.22;5052770;28;20029;-74
2022/03/27 10:51:10;;;;;;;31.15;10.48;;;;;;;23.56;27.75;101410.34;5052761;28;20029;-73
2022/03/27 10:53:36;;;;;;;16.27;8.05;;;;;;;24.05;25.62;101403.72;5034844;28;20064;-74
2022/03/27 10:56:03;;;;;;;13.70;8.32;;;;;;;24.79;25.01;101400.56;5053129;28;20033;-74
2022/03/27 10:58:37;;;;;;;13.90;8.68;;;;;;;24.50;26.23;101405.91;5052810;28;20025;-76
2022/03/27 11:01:09;;;;;;;16.35;8.27;;;;;;;24.89;24.65;101403.50;5052727;28;20041;-76
2022/03/27 11:04:05;;;;;;;13.27;8.93;;;;;;;24.18;25.99;101401.84;5052191;28;20036;-76
2022/03/27 11:06:37;;;;;;;14.35;8.00;;;;;;;23.93;25.98;101394.75;5034780;28;20036;-74
2022/03/27 11:09:09;;;;;;;14.27;8.13;;;;;;;23.81;26.13;101402.06;5034735;28;20041;-76
2022/03/27 11:11:37;;;;;;;12.98;7.95;;;;;;;24.35;24.82;101398.22;5034155;28;20127;-75
2022/03/27 11:14:04;;;;;;;10.15;7.63;;;;;;;24.72;24.04;101403.44;5052010;28;20041;-75
2022/03/27 11:16:30;;;;;;;13.50;7.80;;;;;;;25.33;23.18;101391.06;5052238;28;20029;-75
2022/03/27 11:18:56;;;;;;;13.25;8.70;;;;;;;24.98;23.63;101382.16;5053053;28;20071;-76
2022/03/27 11:21:28;;;;;;;12.63;8.25;;;;;;;25.16;24.88;101387.44;5052826;28;20041;-76
2022/03/27 11:24:16;;;;;;;12.23;7.75;;;;;;;25.74;22.99;101382.81;5052080;28;20469;-76
2022/03/27 11:26:42;;;;;;;11.30;7.55;;;;;;;26.94;21.38;101375.91;5042794;28;20053;-76
2022/03/27 11:29:10;;;;;;;13.85;7.88;;;;;;;26.65;21.66;101384.25;5052369;28;20151;-76
2022/03/27 11:31:37;;;;;;;14.55;8.88;;;;;;;26.87;21.05;101380.75;5033516;28;20036;-76
2022/03/27 11:34:11;;;;;;;13.63;7.63;;;;;;;26.97;21.31;101378.09;5034570;28;20128;-75
2022/03/27 11:36:39;;;;;;;15.27;9.10;;;;;;;26.69;21.70;101379.97;5052174;28;20512;-75
2022/03/27 11:39:13;;;;;;;15.02;8.52;;;;;;;27.01;21.05;101362.88;5034415;28;20064;-77
2022/03/27 11:41:44;;;;;;;13.07;8.02;;;;;;;26.18;23.56;101370.19;5051747;28;20025;-75
2022/03/27 11:47:36;;;;;;;13.77;6.68;;;;;;;27.30;20.30;101355.25;4990231;28;20092;-73
2022/03/27 11:50:03;;;;;;;13.43;7.35;;;;;;;27.52;19.55;101350.56;5032237;28;20063;-75
2022/03/27 11:52:29;;;;;;;8.90;6.75;;;;;;;27.65;19.53;101348.47;5051481;28;20107;-74
2022/03/27 11:55:13;;;;;;;9.95;7.32;;;;;;;28.37;18.54;101351.56;5051848;28;20490;-76
2022/03/27 11:57:45;;;;;;;10.85;7.35;;;;;;;27.92;19.22;101346.56;5051658;28;20075;-75
2022/03/27 12:00:13;;;;;;;11.07;6.70;;;;;;;27.97;18.30;101351.22;5017392;28;20498;-76
2022/03/27 12:02:42;;;;;;;12.88;7.57;;;;;;;27.42;19.24;101355.13;5033430;28;20029;-74
2022/03/27 12:05:08;;;;;;;14.98;8.07;;;;;;;27.26;20.16;101345.94;5051720;28;20056;-74
2022/03/27 12:07:57;;;;;;;11.27;8.00;;;;;;;27.59;20.05;101337.50;5051555;28;20028;-74
2022/03/27 12:10:24;;;;;;;12.07;7.43;;;;;;;27.71;20.10;101352.94;5051471;28;20029;-73
2022/03/27 12:13:00;;;;;;;13.50;7.93;;;;;;;25.43;22.27;101334.00;5051183;28;20036;-73
2022/03/27 12:15:35;;;;;;;15.07;8.80;;;;;;;24.70;24.55;101337.44;5034471;28;20041;-72
2022/03/27 12:18:02;;;;;;;13.80;7.93;;;;;;;25.02;24.54;101326.91;5051293;28;20036;-73
2022/03/27 12:20:27;;;;;;;12.73;8.25;;;;;;;25.84;22.05;101339.34;5051494;28;20029;-74
2022/03/27 12:22:53;;;;;;;13.57;8.10;;;;;;;26.48;21.13;101337.88;5036408;28;20475;-75
2022/03/27 12:25:25;;;;;;;13.10;7.72;;;;;;;26.47;21.60;101338.13;5035799;28;20493;-76
2022/03/27 12:30:47;;;;;;;13.45;8.02;;;;;;;26.38;21.22;101325.94;5033512;28;20117;-76
2022/03/27 12:33:13;;;;;;;11.47;7.20;;;;;;;26.74;20.92;101322.66;5051000;28;20045;-75
2022/03/27 12:35:39;;;;;;;12.00;7.30;;;;;;;27.47;19.49;101314.13;5033632;28;20098;-75
2022/03/27 12:38:05;;;;;;;12.13;7.78;;;;;;;27.80;19.74;101311.16;5051801;28;20037;-76
2022/03/27 12:40:49;;;;;;;9.57;7.60;;;;;;;27.92;19.79;101316.44;5033429;28;20040;-76
2022/03/27 12:43:15;;;;;;;13.43;8.02;;;;;;;27.75;19.78;101315.75;5052984;28;20041;-75
2022/03/27 12:45:42;;;;;;;12.23;7.53;;;;;;;27.07;20.49;101315.38;5055442;28;20044;-75
2022/03/27 12:48:23;;;;;;;14.77;7.75;;;;;;;27.85;19.47;101303.00;5055263;28;20551;-76
2022/03/27 12:50:57;;;;;;;12.73;8.07;;;;;;;28.11;20.21;101305.91;5057452;28;20033;-76
2022/03/27 12:53:22;;;;;;;11.90;7.70;;;;;;;27.47;20.48;101306.75;5039006;28;20080;-74
2022/03/27 12:56:09;;;;;;;12.95;7.68;;;;;;;27.44;20.49;101307.25;5055266;28;20136;-75
2022/03/27 12:58:39;;;;;;;12.32;7.47;;;;;;;28.16;18.82;101303.16;5055603;28;20033;-74
2022/03/27 13:01:11;;;;;;;9.10;7.07;;;;;;;28.43;18.38;101304.97;5055501;28;20398;-74
2022/03/27 13:03:38;;;;;;;12.13;6.93;;;;;;;28.07;18.99;101285.59;5054762;28;20420;-74
2022/03/27 13:06:09;;;;;;;10.25;6.35;;;;;;;28.65;18.51;101290.00;5038262;28;20040;-75
2022/03/27 13:08:40;;;;;;;11.02;7.10;;;;;;;28.16;18.94;101292.22;5038340;28;20029;-74
2022/03/27 13:11:38;;;;;;;10.90;7.00;;;;;;;28.14;19.49;101294.41;5054555;28;20117;-75
2022/03/27 13:14:04;;;;;;;11.02;7.28;;;;;;;26.02;21.65;101289.09;5054564;28;20486;-75
2022/03/27 13:16:40;;;;;;;13.20;7.72;;;;;;;26.39;22.06;101284.72;5054613;28;20375;-76
2022/03/27 13:19:08;;;;;;;14.32;7.70;;;;;;;26.14;21.00;101290.66;5054609;28;20044;-75
2022/03/27 13:21:36;;;;;;;11.85;7.13;;;;;;;27.25;20.90;101271.25;5054306;28;20052;-73
2022/03/27 13:24:05;;;;;;;12.40;7.13;;;;;;;26.50;21.03;101275.63;5054174;28;20522;-75
2022/03/27 13:26:33;;;;;;;10.57;7.07;;;;;;;26.76;21.89;101270.47;5054263;28;20045;-72
2022/03/27 13:28:59;;;;;;;13.02;7.78;;;;;;;25.57;22.66;101265.50;5054291;28;20040;-71
2022/03/27 13:31:26;;;;;;;13.10;7.78;;;;;;;26.86;21.26;101258.78;5036177;28;20021;-74
2022/03/27 13:33:52;;;;;;;11.13;6.53;;;;;;;27.07;19.48;101262.63;5036121;28;20036;-75
2022/03/27 13:36:18;;;;;;;9.07;6.57;;;;;;;26.92;18.98;101257.78;5054230;28;20048;-73
2022/03/27 13:38:44;;;;;;;10.15;6.57;;;;;;;27.30;19.08;101263.09;5036553;28;20037;-74
2022/03/27 13:43:54;;;;;;;14.15;7.50;;;;;;;27.54;17.88;101249.06;5053927;28;20033;-73
2022/03/27 13:46:20;;;;;;;11.50;6.32;;;;;;;27.51;18.19;101249.59;5054107;28;20496;-74
2022/03/27 13:48:46;;;;;;;10.60;6.00;;;;;;;27.75;18.75;101245.41;5053922;28;20040;-74
2022/03/27 13:51:12;;;;;;;12.75;6.05;;;;;;;28.23;18.70;101246.22;5053837;28;20094;-76
2022/03/27 13:53:38;;;;;;;10.23;6.43;;;;;;;28.22;17.63;101232.81;5053096;28;20044;-74
2022/03/27 13:56:04;;;;;;;8.63;6.38;;;;;;;28.19;17.92;101239.66;5053921;28;20056;-75
2022/03/27 13:58:31;;;;;;;9.40;6.70;;;;;;;28.06;17.83;101231.94;5054180;28;20563;-76
2022/03/27 14:00:57;;;;;;;12.82;6.57;;;;;;;28.27;17.81;101239.13;5053796;28;20279;-74
2022/03/27 14:03:24;;;;;;;13.38;6.22;;;;;;;28.31;17.63;101234.00;5053315;28;20040;-72
2022/03/27 14:05:53;;;;;;;11.75;6.90;;;;;;;28.41;17.73;101236.75;5035695;28;20082;-73
2022/03/27 14:08:18;;;;;;;9.05;6.38;;;;;;;27.11;18.81;101229.00;5053667;28;20036;-74
2022/03/27 14:10:44;;;;;;;8.85;6.13;;;;;;;26.60;20.80;101223.00;5053461;28;20033;-72
2022/03/27 14:13:10;;;;;;;10.45;6.60;;;;;;;25.94;21.04;101224.88;5035384;28;20669;-72
2022/03/27 14:15:39;;;;;;;12.32;6.88;;;;;;;25.76;21.15;101219.72;5035730;28;20082;-74
2022/03/27 14:18:04;;;;;;;13.00;7.28;;;;;;;25.34;21.26;101220.94;5036022;28;20044;-75
2022/03/27 14:20:30;;;;;;;12.52;7.43;;;;;;;24.72;23.80;101218.19;5053449;28;20037;-75
2022/03/27 14:22:56;;;;;;;12.55;7.35;;;;;;;24.40;23.88;101225.16;5052867;28;20033;-75
2022/03/27 14:25:21;;;;;;;11.75;6.70;;;;;;;24.20;22.75;101209.22;5053703;28;20078;-73
2022/03/27 14:27:47;;;;;;;10.43;6.40;;;;;;;23.90;23.59;101210.19;5036005;28;20048;-72
2022/03/27 14:30:15;;;;;;;9.50;6.13;;;;;;;23.49;24.67;101209.22;5018849;28;20485;-74
2022/03/27 14:32:43;;;;;;;13.73;7.28;;;;;;;23.28;24.01;101207.09;5052770;28;20056;-72
2022/03/27 14:35:10;;;;;;;12.65;6.75;;;;;;;23.19;23.46;101198.44;5053151;28;20094;-74
2022/03/27 14:37:36;;;;;;;12.80;6.68;;;;;;;22.98;23.30;101207.13;5053112;28;20398;-74
2022/03/27 14:40:04;;;;;;;10.70;6.57;;;;;;;23.04;23.53;101202.66;5053099;28;20033;-74
2022/03/27 14:42:30;;;;;;;11.52;7.30;;;;;;;22.98;23.74;101197.09;5035206;28;20033;-74
2022/03/27 14:44:57;;;;;;;11.30;6.93;;;;;;;22.82;24.54;101194.16;5052837;28;20408;-73
2022/03/27 14:47:23;;;;;;;14.80;6.90;;;;;;;22.80;24.48;101193.56;5018504;28;20626;-72
2022/03/27 14:49:50;;;;;;;12.85;6.72;;;;;;;21.83;26.37;101188.91;5052827;28;20068;-72
2022/03/27 14:52:17;;;;;;;12.15;7.13;;;;;;;22.20;25.57;101188.94;5052272;28;20120;-73
2022/03/27 14:57:29;;;;;;;10.75;7.35;;;;;;;22.21;25.24;101188.72;5037707;28;20048;-75
2022/03/27 14:59:55;;;;;;;10.70;6.78;;;;;;;22.29;25.18;101193.00;5035249;28;20051;-74
2022/03/27 15:02:20;;;;;;;14.07;7.32;;;;;;;22.26;24.37;101188.03;5052214;28;20089;-72
2022/03/27 15:04:48;;;;;;;10.85;7.20;;;;;;;21.93;25.42;101181.06;5051994;28;20041;-73
2022/03/27 15:07:15;;;;;;;12.50;7.93;;;;;;;21.58;25.60;101175.41;5018417;28;20045;-72
2022/03/27 15:09:41;;;;;;;12.50;7.07;;;;;;;21.61;25.81;101176.81;5034548;28;20041;-74
2022/03/27 15:12:07;;;;;;;11.63;6.38;;;;;;;21.74;25.48;101184.81;5052037;28;20100;-72
2022/03/27 15:14:33;;;;;;;13.70;7.70;;;;;;;21.80;24.99;101183.09;5052492;28;20040;-74
2022/03/27 15:16:59;;;;;;;9.85;7.13;;;;;;;21.77;25.19;101181.66;5052589;28;20125;-74
2022/03/27 15:19:24;;;;;;;10.50;6.32;;;;;;;21.85;25.11;101180.56;5052414;28;20044;-74
2022/03/27 15:21:50;;;;;;;14.23;7.90;;;;;;;21.62;25.54;101178.47;5051857;28;20032;-74
2022/03/27 15:24:17;;;;;;;16.52;7.90;;;;;;;21.60;25.47;101172.47;5052217;28;20154;-74
2022/03/27 15:26:43;;;;;;;12.20;7.10;;;;;;;21.56;25.76;101172.06;5052112;28;20094;-72
2022/03/27 15:29:09;;;;;;;11.63;7.00;;;;;;;21.66;25.83;101166.97;5034392;28;20045;-75
2022/03/27 15:31:35;;;;;;;12.30;6.85;;;;;;;21.67;25.91;101165.09;5051898;28;20509;-76
2022/03/27 15:34:01;;;;;;;14.65;8.85;;;;;;;21.56;25.75;101160.41;5017976;28;20044;-75
2022/03/27 15:36:28;;;;;;;13.60;6.78;;;;;;;21.50;25.88;101158.59;5052290;28;20486;-76
2022/03/27 15:38:54;;;;;;;16.33;7.65;;;;;;;21.03;26.41;101158.13;5052504;28;20037;-75
2022/03/27 15:41:22;;;;;;;13.73;6.88;;;;;;;21.13;25.93;101166.59;5051791;28;20474;-76
2022/03/27 15:43:49;;;;;;;12.80;7.65;;;;;;;21.16;25.99;101163.44;5034191;28;20432;-75
2022/03/27 15:46:15;;;;;;;10.50;6.07;;;;;;;21.21;26.07;101158.19;5035615;28;20040;-75
2022/03/27 15:48:41;;;;;;;13.10;7.47;;;;;;;21.22;26.27;101156.31;5053601;28;20043;-77
2022/03/27 15:51:07;;;;;;;11.07;6.47;;;;;;;21.23;25.88;101155.25;5038528;28;20032;-77
2022/03/27 15:53:33;;;;;;;9.77;5.85;;;;;;;21.05;26.24;101161.44;5019471;28;20589;-77
2022/03/27 15:55:59;;;;;;;9.00;6.85;;;;;;;21.09;25.99;101162.66;5055640;28;20061;-76
2022/03/27 15:58:27;;;;;;;11.63;7.38;;;;;;;21.02;25.97;101151.88;5052254;28;20379;-76